Time;durP1;ratioP1;P1;durP2;ratioP2;P2;SDS_P1;SDS_P2;PMS_P1;PMS_P2;Temp;Humidity;BMP_temperature;BMP_pressure;BME280_temperature;BME280_humidity;BME280_pressure;Samples;Min_cycle;Max_cycle;Signal;HPM_P1;HPM_P2
2024/01/22 00:00:09;;;;;;;25.65;18.63;;;;;;;-0.71;57.42;100530.06;5126027;28;20047;-71
2024/01/22 00:02:37;;;;;;;27.15;20.17;;;;;;;-0.68;57.29;100532.69;5126490;28;20111;-72
2024/01/22 00:05:04;;;;;;;22.50;17.52;;;;;;;-0.74;57.65;100530.03;5126321;28;20096;-70
2024/01/22 00:07:32;;;;;;;25.40;18.55;;;;;;;-0.84;57.84;100517.78;5125477;28;20208;-71
2024/01/22 00:09:59;;;;;;;24.15;18.75;;;;;;;-0.82;57.97;100523.88;5126054;28;20333;-71
2024/01/22 00:12:25;;;;;;;24.77;18.05;;;;;;;-0.83;57.84;100520.41;5126248;28;20080;-71
2024/01/22 00:14:52;;;;;;;22.85;17.52;;;;;;;-0.84;57.98;100516.06;5126772;28;20105;-71
2024/01/22 00:17:19;;;;;;;25.02;17.88;;;;;;;-0.85;57.89;100519.50;5126443;28;20044;-71
2024/01/22 00:19:47;;;;;;;21.60;16.38;;;;;;;-0.83;57.75;100507.38;5126126;28;20051;-71
2024/01/22 00:22:13;;;;;;;25.92;17.92;;;;;;;-0.82;57.50;100513.47;5126268;28;20088;-71
2024/01/22 00:24:40;;;;;;;22.90;17.52;;;;;;;-0.84;57.37;100508.25;5126349;28;20348;-71
2024/01/22 00:27:07;;;;;;;24.02;17.80;;;;;;;-0.87;57.49;100502.13;5125405;28;20039;-71
2024/01/22 00:29:33;;;;;;;21.88;17.42;;;;;;;-0.86;57.47;100504.75;5126248;28;20110;-71
2024/01/22 00:32:00;;;;;;;22.95;16.38;;;;;;;-0.86;57.57;100507.38;5126249;28;20050;-71
2024/01/22 00:34:27;;;;;;;28.27;17.95;;;;;;;-0.94;57.66;100513.34;5126183;28;20043;-71
2024/01/22 00:36:55;;;;;;;24.60;16.90;;;;;;;-0.93;57.56;100510.75;5126128;28;20047;-71
2024/01/22 00:39:22;;;;;;;20.90;15.65;;;;;;;-0.92;57.58;100501.22;5126459;28;20044;-71
2024/01/22 00:41:49;;;;;;;22.42;16.80;;;;;;;-0.93;57.70;100502.97;5125806;28;20365;-71
2024/01/22 00:44:15;;;;;;;25.23;17.40;;;;;;;-0.91;57.53;100496.03;5125836;28;20365;-71
2024/01/22 00:46:42;;;;;;;20.15;15.68;;;;;;;-0.96;57.58;100497.72;5126092;28;20043;-70
2024/01/22 00:49:09;;;;;;;21.05;15.18;;;;;;;-0.96;57.62;100494.25;5126300;28;20085;-71
2024/01/22 00:51:37;;;;;;;19.92;15.57;;;;;;;-1.10;57.87;100489.75;5125813;28;20296;-71
2024/01/22 00:54:05;;;;;;;19.98;15.88;;;;;;;-1.06;58.00;100488.91;5125767;28;20072;-71
2024/01/22 00:56:33;;;;;;;20.15;15.00;;;;;;;-1.07;57.70;100484.56;5125988;28;20043;-71
2024/01/22 00:58:59;;;;;;;25.67;17.80;;;;;;;-1.06;57.69;100478.50;5125703;28;20052;-71
2024/01/22 01:01:26;;;;;;;19.30;16.15;;;;;;;-1.09;57.46;100470.69;5124806;28;20061;-71
2024/01/22 01:03:55;;;;;;;21.55;15.90;;;;;;;-1.14;57.77;100481.91;5125649;28;20065;-71
2024/01/22 01:06:22;;;;;;;19.55;15.77;;;;;;;-1.19;58.02;100483.59;5125498;28;20067;-71
2024/01/22 01:08:48;;;;;;;21.90;15.10;;;;;;;-1.11;57.63;100485.41;5125614;28;20092;-71
2024/01/22 01:11:16;;;;;;;18.63;14.93;;;;;;;-1.17;57.93;100494.88;5126163;28;20051;-71
2024/01/22 01:13:43;;;;;;;19.92;14.88;;;;;;;-1.16;57.97;100489.69;5129719;28;20071;-71
2024/01/22 01:16:09;;;;;;;18.98;16.00;;;;;;;-1.15;57.88;100473.22;5130045;28;20104;-71
2024/01/22 01:18:36;;;;;;;21.17;15.85;;;;;;;-1.18;58.07;100481.00;5129714;28;20043;-71
2024/01/22 01:21:03;;;;;;;18.23;14.70;;;;;;;-1.21;58.33;100475.75;5129917;28;20238;-71
2024/01/22 01:23:29;;;;;;;20.88;15.35;;;;;;;-1.12;57.75;100478.47;5128437;28;20088;-71
2024/01/22 01:25:56;;;;;;;19.58;14.63;;;;;;;-1.39;58.89;100455.63;5129780;28;20043;-71
2024/01/22 01:28:24;;;;;;;21.80;15.30;;;;;;;-1.44;59.44;100459.03;5128902;28;20211;-71
2024/01/22 01:30:51;;;;;;;19.55;15.23;;;;;;;-1.53;59.66;100446.81;5129480;28;20046;-70
2024/01/22 01:33:17;;;;;;;18.00;15.25;;;;;;;-1.73;60.32;100453.53;5128323;28;20092;-71
2024/01/22 01:35:45;;;;;;;19.95;15.70;;;;;;;-1.54;59.76;100452.00;5129330;28;20035;-71
2024/01/22 01:38:12;;;;;;;21.90;17.13;;;;;;;-1.50;59.22;100446.84;5129293;28;20070;-71
2024/01/22 01:40:40;;;;;;;21.63;17.13;;;;;;;-1.44;59.30;100452.13;5129303;28;20043;-71
2024/01/22 01:43:07;;;;;;;22.05;16.55;;;;;;;-1.44;58.95;100440.84;5128922;28;20035;-71
2024/01/22 01:45:35;;;;;;;18.40;15.02;;;;;;;-1.52;59.41;100432.09;5128044;28;20292;-71
2024/01/22 01:48:03;;;;;;;22.42;15.05;;;;;;;-1.57;59.22;100437.25;5127967;28;20296;-71
2024/01/22 01:50:29;;;;;;;23.45;16.45;;;;;;;-1.65;59.70;100423.28;5129318;28;20040;-71
2024/01/22 01:52:57;;;;;;;18.42;14.60;;;;;;;-1.69;60.01;100422.38;5129304;28;20047;-71
2024/01/22 01:55:24;;;;;;;21.80;15.15;;;;;;;-1.68;59.72;100418.94;5128939;28;20043;-72
2024/01/22 01:57:51;;;;;;;19.63;14.68;;;;;;;-1.59;59.70;100422.47;5128658;28;20043;-72
2024/01/22 02:00:19;;;;;;;21.55;15.93;;;;;;;-1.91;59.78;100378.81;5128728;28;20273;-71
2024/01/22 02:02:47;;;;;;;19.95;16.33;;;;;;;-1.74;59.83;100416.25;5128701;28;20039;-71
2024/01/22 02:05:14;;;;;;;21.25;16.60;;;;;;;-1.75;60.11;100411.91;5128574;28;20043;-72
2024/01/22 02:07:41;;;;;;;20.25;15.88;;;;;;;-1.77;59.88;100416.22;5127610;28;20048;-71
2024/01/22 02:10:13;;;;;;;21.23;15.60;;;;;;;-1.84;60.62;100413.53;5128976;28;20096;-71
2024/01/22 02:12:39;;;;;;;21.10;16.17;;;;;;;-1.75;60.17;100411.03;5128655;28;20045;-71
2024/01/22 02:15:07;;;;;;;22.85;17.88;;;;;;;-1.88;60.40;100410.03;5128317;28;20311;-71
2024/01/22 02:17:33;;;;;;;21.00;15.45;;;;;;;-1.89;60.57;100408.28;5128548;28;20043;-71
2024/01/22 02:20:02;;;;;;;24.42;17.38;;;;;;;-1.81;60.37;100413.56;5128469;28;20043;-71
2024/01/22 02:22:29;;;;;;;24.88;17.45;;;;;;;-2.07;60.20;100361.31;5128438;28;20089;-71
2024/01/22 02:24:57;;;;;;;19.67;16.08;;;;;;;-1.77;60.00;100413.63;5127752;28;20101;-71
2024/01/22 02:27:24;;;;;;;21.48;16.35;;;;;;;-1.79;59.82;100415.34;5128129;28;20077;-71
2024/01/22 02:29:50;;;;;;;22.25;16.38;;;;;;;-1.81;60.07;100406.66;5128572;28;20111;-71
2024/01/22 02:32:17;;;;;;;21.45;17.13;;;;;;;-1.85;60.20;100411.78;5128236;28;20088;-71
2024/01/22 02:34:44;;;;;;;23.13;16.13;;;;;;;-1.81;60.03;100416.16;5128104;28;20043;-71
2024/01/22 02:37:10;;;;;;;21.92;17.95;;;;;;;-1.86;60.32;100410.91;5127048;28;20093;-71
2024/01/22 02:39:37;;;;;;;23.40;16.67;;;;;;;-1.85;60.15;100404.88;5127861;28;20044;-71
2024/01/22 02:42:05;;;;;;;22.65;16.33;;;;;;;-2.77;59.94;100230.66;5128086;28;20043;-71
2024/01/22 02:44:34;;;;;;;22.50;16.27;;;;;;;-1.80;59.77;100392.81;5127700;28;20204;-71
2024/01/22 02:47:01;;;;;;;23.20;17.23;;;;;;;-1.84;59.83;100395.34;5128014;28;20067;-71
2024/01/22 02:49:28;;;;;;;25.33;17.55;;;;;;;-2.74;59.51;100226.38;5127898;28;20047;-70
2024/01/22 02:51:54;;;;;;;20.80;16.10;;;;;;;-1.80;60.03;100372.00;5127873;28;20051;-71
2024/01/22 02:54:21;;;;;;;20.15;16.88;;;;;;;-1.92;60.26;100371.00;5127852;28;20039;-71
2024/01/22 02:56:47;;;;;;;24.42;17.52;;;;;;;-2.25;61.45;100367.16;5128123;28;20084;-71
2024/01/22 02:59:15;;;;;;;19.40;16.80;;;;;;;-2.50;61.54;100328.75;5127740;28;20051;-71
2024/01/22 03:01:42;;;;;;;22.40;17.48;;;;;;;-2.41;62.08;100358.28;5127701;28;20106;-71
2024/01/22 03:04:09;;;;;;;23.23;17.05;;;;;;;-2.18;61.35;100358.59;5127222;28;20350;-71
2024/01/22 03:06:37;;;;;;;21.33;17.58;;;;;;;-2.28;61.54;100359.31;5127064;28;20112;-71
2024/01/22 03:09:04;;;;;;;23.10;17.98;;;;;;;-2.39;61.57;100359.19;5127512;28;20055;-71
2024/01/22 03:11:30;;;;;;;22.85;17.05;;;;;;;-2.69;62.37;100332.81;5127474;28;20114;-71
2024/01/22 03:13:57;;;;;;;22.05;17.15;;;;;;;-2.32;61.57;100361.00;5127122;28;20100;-71
2024/01/22 03:16:25;;;;;;;21.95;17.77;;;;;;;-2.33;61.41;100356.66;5127641;28;20066;-71
2024/01/22 03:18:52;;;;;;;23.85;18.23;;;;;;;-2.24;61.12;100349.84;5127345;28;20043;-71
2024/01/22 03:21:19;;;;;;;24.10;19.15;;;;;;;-2.26;61.26;100348.97;5127315;28;20051;-71
2024/01/22 03:23:45;;;;;;;23.58;18.40;;;;;;;-2.28;61.14;100346.34;5127157;28;20065;-71
2024/01/22 03:26:19;;;;;;;23.33;17.48;;;;;;;-2.37;61.79;100343.63;5127190;28;20054;-71
2024/01/22 03:28:45;;;;;;;21.25;17.27;;;;;;;-2.42;61.66;100338.38;5127161;28;20043;-71
2024/01/22 03:31:20;;;;;;;23.60;18.02;;;;;;;-2.37;61.37;100333.25;5127088;28;20086;-71
2024/01/22 03:33:48;;;;;;;22.15;17.15;;;;;;;-2.55;62.03;100330.41;5127223;28;20048;-71
2024/01/22 03:36:15;;;;;;;21.13;16.60;;;;;;;-2.64;62.25;100324.25;5125863;28;20039;-70
2024/01/22 03:38:42;;;;;;;22.15;17.30;;;;;;;-2.67;62.72;100333.72;5126945;28;20043;-71
2024/01/22 03:41:08;;;;;;;23.88;17.88;;;;;;;-2.77;63.18;100331.84;5126677;28;20043;-71
2024/01/22 03:43:35;;;;;;;21.13;18.75;;;;;;;-2.79;63.25;100330.94;5126455;28;20039;-70
2024/01/22 03:46:02;;;;;;;27.02;17.88;;;;;;;-2.79;63.18;100320.56;5126463;28;20043;-71
2024/01/22 03:48:28;;;;;;;19.75;17.42;;;;;;;-2.87;63.59;100319.59;5126992;28;20051;-71
2024/01/22 03:50:56;;;;;;;26.88;18.98;;;;;;;-3.11;63.58;100287.28;5125545;28;20058;-71
2024/01/22 03:53:23;;;;;;;25.45;18.25;;;;;;;-3.39;63.19;100230.69;5126267;28;20046;-72
2024/01/22 03:55:50;;;;;;;25.08;18.83;;;;;;;-2.76;62.91;100311.13;5126038;28;20047;-71
2024/01/22 03:58:16;;;;;;;21.55;17.23;;;;;;;-2.90;63.57;100307.44;5126829;28;20226;-71
2024/01/22 04:00:43;;;;;;;25.17;19.83;;;;;;;-3.40;64.48;100262.63;5126595;28;20280;-71
2024/01/22 04:03:10;;;;;;;25.80;19.30;;;;;;;-3.10;64.49;100312.34;5125866;28;20048;-71
2024/01/22 04:05:37;;;;;;;24.45;20.05;;;;;;;-3.12;64.82;100311.47;5126570;28;20363;-71
2024/01/22 04:08:07;;;;;;;26.75;18.63;;;;;;;-3.21;65.06;100308.72;5126580;28;20043;-71
2024/01/22 04:10:33;;;;;;;28.60;18.63;;;;;;;-3.05;64.31;100304.63;5126240;28;20048;-71
2024/01/22 04:13:00;;;;;;;25.13;17.52;;;;;;;-3.07;64.28;100304.63;5126348;28;20043;-71
2024/01/22 04:15:27;;;;;;;30.75;19.95;;;;;;;-3.25;65.18;100304.34;5126380;28;20096;-71
2024/01/22 04:17:53;;;;;;;26.33;19.65;;;;;;;-3.19;65.00;100301.84;5126021;28;20096;-71
2024/01/22 04:20:20;;;;;;;24.33;17.83;;;;;;;-3.18;64.87;100306.19;5125175;28;20039;-70
2024/01/22 04:22:46;;;;;;;25.15;18.08;;;;;;;-2.96;63.76;100299.59;5126518;28;20051;-71
2024/01/22 04:25:14;;;;;;;24.92;18.80;;;;;;;-2.98;63.67;100291.78;5126233;28;20051;-71
2024/01/22 04:27:41;;;;;;;28.30;18.33;;;;;;;-3.09;64.38;100297.66;5125900;28;20043;-71
2024/01/22 04:30:09;;;;;;;24.88;16.85;;;;;;;-3.15;64.83;100292.38;5126271;28;20318;-71
2024/01/22 04:32:35;;;;;;;25.67;18.05;;;;;;;-3.05;64.07;100299.44;5125915;28;20181;-71
2024/01/22 04:35:04;;;;;;;24.52;18.25;;;;;;;-2.93;63.67;100291.84;5125291;28;20241;-71
2024/01/22 04:37:30;;;;;;;25.85;18.70;;;;;;;-3.00;63.86;100297.78;5126174;28;20100;-71
2024/01/22 04:40:08;;;;;;;23.85;19.23;;;;;;;-2.97;63.75;100290.06;5126047;28;20063;-71
2024/01/22 04:42:36;;;;;;;27.33;19.38;;;;;;;-3.18;64.89;100288.03;5126000;28;20043;-71
2024/01/22 04:45:03;;;;;;;25.08;17.90;;;;;;;-3.23;64.98;100297.47;5124742;28;20295;-70
2024/01/22 04:47:30;;;;;;;27.67;19.15;;;;;;;-3.66;65.60;100244.91;5128202;28;20081;-72
2024/01/22 04:49:57;;;;;;;24.45;18.17;;;;;;;-3.21;64.98;100302.66;5130173;28;20044;-71
2024/01/22 04:52:23;;;;;;;24.30;18.33;;;;;;;-3.10;64.24;100294.19;5129860;28;20093;-71
2024/01/22 04:54:50;;;;;;;21.95;16.70;;;;;;;-3.15;64.62;100297.56;5130066;28;20058;-71
2024/01/22 04:57:17;;;;;;;25.98;17.67;;;;;;;-3.20;64.83;100301.81;5130060;28;20065;-71
2024/01/22 04:59:45;;;;;;;28.92;20.23;;;;;;;-3.03;64.36;100293.44;5130282;28;20114;-71
2024/01/22 05:02:11;;;;;;;27.73;18.83;;;;;;;-3.01;64.14;100296.06;5129970;28;20108;-71
2024/01/22 05:04:38;;;;;;;24.55;19.45;;;;;;;-3.04;64.17;100291.69;5130166;28;20089;-70
2024/01/22 05:07:04;;;;;;;25.08;17.75;;;;;;;-3.16;64.74;100290.66;5129193;28;20229;-70
2024/01/22 05:09:31;;;;;;;27.67;20.63;;;;;;;-3.08;64.35;100286.44;5129311;28;20046;-70
2024/01/22 05:11:58;;;;;;;24.90;18.77;;;;;;;-3.00;64.25;100290.88;5130314;28;20062;-70
2024/01/22 05:14:24;;;;;;;25.05;19.75;;;;;;;-3.05;64.22;100279.56;5129941;28;20088;-71
2024/01/22 05:16:52;;;;;;;25.38;19.25;;;;;;;-3.09;64.66;100282.97;5129443;28;20084;-70
2024/01/22 05:19:19;;;;;;;27.60;19.45;;;;;;;-3.06;64.32;100290.81;5129253;28;20039;-70
2024/01/22 05:21:46;;;;;;;23.80;18.67;;;;;;;-3.03;64.31;100288.25;5129226;28;20303;-71
2024/01/22 05:24:12;;;;;;;23.50;20.13;;;;;;;-2.98;63.88;100291.78;5129399;28;20089;-71
2024/01/22 05:26:39;;;;;;;24.13;18.10;;;;;;;-2.95;63.95;100293.53;5129437;28;20043;-71
2024/01/22 05:29:05;;;;;;;23.40;17.95;;;;;;;-2.96;64.06;100292.69;5129431;28;20070;-70
2024/01/22 05:31:32;;;;;;;25.55;18.08;;;;;;;-3.30;64.31;100255.00;5129593;28;20214;-71
2024/01/22 05:34:00;;;;;;;27.30;18.95;;;;;;;-3.28;64.50;100240.34;5128151;28;20346;-71
2024/01/22 05:36:27;;;;;;;23.25;18.42;;;;;;;-3.16;63.68;100247.44;5129651;28;20173;-71
2024/01/22 05:38:53;;;;;;;28.20;19.65;;;;;;;-2.97;64.09;100279.69;5129539;28;20051;-71
2024/01/22 05:41:20;;;;;;;23.63;16.08;;;;;;;-3.16;63.64;100243.97;5128919;28;20040;-71
2024/01/22 05:43:46;;;;;;;23.00;18.42;;;;;;;-2.90;63.13;100278.91;5127875;28;20353;-71
2024/01/22 05:46:13;;;;;;;24.30;19.27;;;;;;;-2.90;63.83;100273.72;5128787;28;20055;-70
2024/01/22 05:48:40;;;;;;;21.90;17.45;;;;;;;-3.03;64.22;100280.47;5129005;28;20040;-71
2024/01/22 05:51:08;;;;;;;26.70;18.67;;;;;;;-3.08;64.40;100276.94;5128700;28;20204;-71
2024/01/22 05:53:37;;;;;;;22.90;17.15;;;;;;;-3.08;64.50;100276.94;5128916;28;20054;-71
2024/01/22 05:56:04;;;;;;;24.77;19.90;;;;;;;-3.08;64.53;100278.66;5128642;28;20073;-71
2024/01/22 05:58:31;;;;;;;25.38;18.45;;;;;;;-3.23;65.17;100270.66;5127500;28;20104;-71
2024/01/22 06:00:58;;;;;;;24.80;19.02;;;;;;;-3.18;64.60;100267.28;5128731;28;20088;-71
2024/01/22 06:03:24;;;;;;;24.33;17.98;;;;;;;-3.03;64.21;100257.13;5128423;28;20200;-70
2024/01/22 06:05:51;;;;;;;22.58;17.05;;;;;;;-3.06;64.18;100259.69;5128727;28;20212;-71
2024/01/22 06:08:19;;;;;;;21.83;17.90;;;;;;;-3.78;64.71;100148.00;5128668;28;20043;-71
2024/01/22 06:10:45;;;;;;;28.48;18.90;;;;;;;-3.32;65.34;100254.13;5128666;28;20249;-71
2024/01/22 06:13:12;;;;;;;23.80;18.35;;;;;;;-7.20;65.19;99588.50;5127685;28;20092;-70
2024/01/22 06:15:39;;;;;;;23.17;17.60;;;;;;;-3.33;65.20;100249.78;5128692;28;20040;-70
2024/01/22 06:18:06;;;;;;;24.92;17.48;;;;;;;-3.27;65.06;100249.00;5128794;28;20111;-70
2024/01/22 06:20:33;;;;;;;28.70;17.88;;;;;;;-3.42;64.56;100207.31;5128480;28;20063;-71
2024/01/22 06:23:00;;;;;;;25.10;18.20;;;;;;;-4.36;64.84;100059.94;5128686;28;20089;-70
2024/01/22 06:25:28;;;;;;;25.00;17.42;;;;;;;-3.42;64.28;100205.59;5128264;28;20036;-70
2024/01/22 06:27:55;;;;;;;23.80;17.95;;;;;;;-3.17;64.62;100250.00;5128236;28;20199;-71
2024/01/22 06:30:21;;;;;;;24.10;18.60;;;;;;;-3.23;64.85;100247.31;5127540;28;20040;-71
2024/01/22 06:32:48;;;;;;;24.92;18.02;;;;;;;-3.30;65.05;100254.16;5128199;28;20097;-71
2024/01/22 06:35:15;;;;;;;26.33;18.20;;;;;;;-3.21;64.82;100250.81;5128127;28;20058;-70
2024/01/22 06:37:42;;;;;;;25.02;19.13;;;;;;;-3.32;65.28;100246.34;5128069;28;20044;-71
2024/01/22 06:40:09;;;;;;;25.67;18.02;;;;;;;-3.43;65.93;100254.81;5128318;28;20050;-71
2024/01/22 06:42:37;;;;;;;26.02;18.55;;;;;;;-3.35;65.21;100248.88;5127952;28;20052;-71
2024/01/22 06:45:05;;;;;;;28.02;19.30;;;;;;;-3.86;66.06;100184.16;5127789;28;20039;-71
2024/01/22 06:47:34;;;;;;;23.40;16.30;;;;;;;-3.51;66.34;100246.03;5128149;28;20043;-70
2024/01/22 06:50:00;;;;;;;20.98;18.73;;;;;;;-3.48;66.15;100251.28;5127589;28;20047;-71
2024/01/22 06:52:27;;;;;;;24.35;19.30;;;;;;;-3.47;66.01;100247.84;5127272;28;20081;-70
2024/01/22 06:54:55;;;;;;;25.50;18.38;;;;;;;-3.39;65.77;100249.69;5128074;28;20070;-71
2024/01/22 06:57:22;;;;;;;25.00;19.13;;;;;;;-3.54;65.37;100210.59;5127523;28;20092;-71
2024/01/22 06:59:52;;;;;;;25.25;17.98;;;;;;;-3.95;64.95;100129.63;5127467;28;20039;-71
2024/01/22 07:02:19;;;;;;;26.42;18.27;;;;;;;-3.25;64.62;100231.75;5127648;28;20040;-70
2024/01/22 07:04:46;;;;;;;26.65;18.60;;;;;;;-3.27;65.09;100228.25;5127178;28;20100;-71
2024/01/22 07:07:13;;;;;;;25.55;17.45;;;;;;;-3.27;65.01;100220.47;5127132;28;20047;-70
2024/01/22 07:09:40;;;;;;;26.42;18.65;;;;;;;-3.23;64.92;100211.03;5126166;28;20264;-71
2024/01/22 07:12:07;;;;;;;28.27;19.20;;;;;;;-3.40;65.71;100229.81;5127253;28;20047;-71
2024/01/22 07:14:34;;;;;;;25.65;18.50;;;;;;;-3.36;65.35;100220.34;5127145;28;20045;-71
2024/01/22 07:17:04;;;;;;;25.77;19.52;;;;;;;-3.31;64.96;100219.56;5126586;28;20048;-71
2024/01/22 07:19:30;;;;;;;25.08;18.17;;;;;;;-3.26;64.89;100214.44;5127313;28;20078;-71
2024/01/22 07:21:57;;;;;;;26.15;19.63;;;;;;;-3.35;65.22;100222.09;5127268;28;20040;-71
2024/01/22 07:24:24;;;;;;;25.20;19.70;;;;;;;-3.40;65.29;100226.34;5127126;28;20043;-71
2024/01/22 07:26:50;;;;;;;28.13;18.15;;;;;;;-3.58;65.13;100184.59;5127321;28;20047;-70
2024/01/22 07:29:17;;;;;;;25.23;18.58;;;;;;;-3.36;65.12;100221.22;5126299;28;20050;-71
2024/01/22 07:31:43;;;;;;;26.98;19.10;;;;;;;-3.42;64.97;100210.78;5127117;28;20039;-71
2024/01/22 07:34:12;;;;;;;26.05;20.30;;;;;;;-3.42;65.16;100202.13;5127017;28;20047;-70
2024/01/22 07:36:39;;;;;;;25.27;18.73;;;;;;;-3.36;64.70;100218.63;5126944;28;20084;-71
2024/01/22 07:39:07;;;;;;;30.58;21.52;;;;;;;-3.34;64.69;100227.31;5126783;28;20211;-71
2024/01/22 07:41:34;;;;;;;25.10;18.98;;;;;;;-3.31;64.42;100223.88;5126686;28;20237;-71
2024/01/22 07:44:01;;;;;;;25.13;19.35;;;;;;;-4.26;64.17;100060.97;5126889;28;20242;-70
2024/01/22 07:46:28;;;;;;;30.17;19.25;;;;;;;-3.53;65.12;100219.22;5126415;28;20035;-71
2024/01/22 07:48:55;;;;;;;28.80;19.85;;;;;;;-3.45;65.21;100208.13;5126701;28;20043;-71
2024/01/22 07:51:23;;;;;;;27.05;18.75;;;;;;;-3.38;65.27;100215.16;5126672;28;20043;-71
2024/01/22 07:53:50;;;;;;;36.22;21.17;;;;;;;-3.37;65.39;100219.47;5126601;28;20191;-71
2024/01/22 07:56:17;;;;;;;26.90;18.33;;;;;;;-3.20;64.70;100221.44;5126353;28;20101;-70
2024/01/22 07:58:44;;;;;;;24.65;18.33;;;;;;;-3.14;64.56;100218.94;5126817;28;20043;-71
2024/01/22 08:01:10;;;;;;;28.20;18.75;;;;;;;-3.23;65.06;100214.50;5126398;28;20104;-71
2024/01/22 08:03:38;;;;;;;27.08;19.88;;;;;;;-3.54;64.62;100127.66;5125626;28;20276;-70
2024/01/22 08:06:05;;;;;;;25.75;19.45;;;;;;;-2.88;64.16;100211.50;5126022;28;20063;-70
2024/01/22 08:08:33;;;;;;;27.38;18.92;;;;;;;-3.40;63.56;100104.53;5126423;28;20100;-71
2024/01/22 08:11:00;;;;;;;25.95;18.23;;;;;;;-2.78;63.34;100197.78;5126349;28;20145;-70
2024/01/22 08:13:26;;;;;;;27.02;19.25;;;;;;;-2.75;63.55;100195.22;5126076;28;20043;-70
2024/01/22 08:15:53;;;;;;;29.15;20.25;;;;;;;-2.59;63.08;100199.72;5126648;28;20092;-70
2024/01/22 08:18:20;;;;;;;27.65;20.20;;;;;;;-2.52;63.17;100206.75;5126321;28;20053;-71
2024/01/22 08:20:47;;;;;;;30.77;18.85;;;;;;;-2.39;62.49;100195.63;5125717;28;20372;-71
2024/01/22 08:23:13;;;;;;;25.25;19.67;;;;;;;-2.26;62.39;100194.03;5124944;28;20051;-71
2024/01/22 08:25:41;;;;;;;24.55;19.42;;;;;;;-2.24;61.98;100186.25;5126188;28;20092;-70
2024/01/22 08:28:08;;;;;;;26.38;17.85;;;;;;;-2.15;62.05;100184.59;5126244;28;20043;-70
2024/01/22 08:30:35;;;;;;;33.47;20.55;;;;;;;-2.08;61.50;100180.34;5126014;28;20059;-70
2024/01/22 08:33:01;;;;;;;25.80;19.35;;;;;;;-1.92;61.55;100156.22;5125978;28;20108;-70
2024/01/22 08:35:28;;;;;;;30.23;18.73;;;;;;;-2.00;61.00;100150.97;5126149;28;20043;-71
2024/01/22 08:37:55;;;;;;;22.52;16.65;;;;;;;-2.47;61.00;100059.69;5126416;28;20043;-71
2024/01/22 08:40:23;;;;;;;23.17;18.55;;;;;;;-1.82;60.36;100102.59;5126128;28;20085;-71
2024/01/22 08:42:52;;;;;;;26.80;17.55;;;;;;;-1.62;59.82;100127.00;5126174;28;20141;-70
2024/01/22 08:45:19;;;;;;;25.92;17.90;;;;;;;-1.60;59.69;100116.59;5126037;28;20129;-70
2024/01/22 08:47:47;;;;;;;23.63;17.73;;;;;;;-1.48;59.44;100112.34;5125260;28;20203;-70
2024/01/22 08:50:17;;;;;;;21.67;16.80;;;;;;;-1.73;59.15;100079.28;5125545;28;20048;-70
2024/01/22 08:52:44;;;;;;;20.85;16.38;;;;;;;-1.40;59.16;100112.38;5124691;28;20043;-71
2024/01/22 08:55:11;;;;;;;24.05;16.45;;;;;;;-1.46;58.71;100110.63;5125952;28;20047;-71
2024/01/22 08:57:37;;;;;;;25.52;17.65;;;;;;;-1.41;58.94;100101.09;5125946;28;20043;-70
2024/01/22 09:00:10;;;;;;;22.70;16.70;;;;;;;-3.04;58.10;99787.72;5125600;28;20318;-71
2024/01/22 09:02:39;;;;;;;22.38;16.45;;;;;;;-1.25;58.24;100103.78;5125818;28;20043;-71
2024/01/22 09:05:06;;;;;;;17.98;15.98;;;;;;;-1.17;58.00;100102.94;5126060;28;20050;-71
2024/01/22 09:07:33;;;;;;;21.25;16.52;;;;;;;-1.08;57.76;100091.72;5125536;28;20059;-71
2024/01/22 09:10:00;;;;;;;22.38;16.42;;;;;;;-0.94;57.48;100087.44;5125474;28;20322;-70
2024/01/22 09:12:26;;;;;;;27.95;17.63;;;;;;;-0.99;56.97;100090.91;5125791;28;20295;-71
2024/01/22 09:14:53;;;;;;;22.65;15.93;;;;;;;-1.02;56.92;100079.59;5125875;28;20051;-71
2024/01/22 09:17:21;;;;;;;21.70;15.98;;;;;;;-1.49;56.97;100014.41;5125835;28;20092;-71
2024/01/22 09:19:48;;;;;;;23.10;15.88;;;;;;;-0.94;57.34;100079.66;5125544;28;20047;-71
2024/01/22 09:22:15;;;;;;;20.83;15.40;;;;;;;-0.79;56.83;100077.06;5124973;28;20115;-71
2024/01/22 09:24:42;;;;;;;20.33;16.83;;;;;;;-0.84;57.05;100073.59;5124922;28;20044;-71
2024/01/22 09:27:08;;;;;;;22.58;15.70;;;;;;;-0.84;56.67;100067.53;5124494;28;20044;-71
2024/01/22 09:29:35;;;;;;;20.50;14.80;;;;;;;-0.82;56.98;100068.41;5125090;28;20100;-70
2024/01/22 09:32:02;;;;;;;19.98;15.57;;;;;;;-1.05;56.73;100029.28;5125200;28;20039;-71
2024/01/22 09:34:30;;;;;;;21.80;16.25;;;;;;;-1.07;56.69;100037.09;5128641;28;20047;-70
2024/01/22 09:36:57;;;;;;;23.13;15.73;;;;;;;-0.86;56.72;100041.50;5128647;28;20055;-71
2024/01/22 09:39:23;;;;;;;21.63;15.88;;;;;;;-0.73;56.53;100052.78;5128574;28;20039;-71
2024/01/22 09:41:51;;;;;;;23.27;16.23;;;;;;;-0.77;56.70;100046.72;5128434;27;20196;-71
2024/01/22 09:44:18;;;;;;;21.52;15.23;;;;;;;-0.77;56.81;100062.34;5129067;28;20081;-71
2024/01/22 09:46:46;;;;;;;20.70;15.45;;;;;;;-0.77;56.83;100054.53;5128160;28;20035;-71
2024/01/22 09:49:13;;;;;;;19.55;14.77;;;;;;;-1.19;56.87;99958.16;5128109;28;20043;-71
2024/01/22 09:51:44;;;;;;;20.65;15.60;;;;;;;-0.78;56.89;100018.94;5127091;28;20036;-71
2024/01/22 09:54:13;;;;;;;20.63;15.15;;;;;;;-1.51;56.64;99859.28;5128081;28;20192;-70
2024/01/22 09:56:40;;;;;;;23.67;15.02;;;;;;;-0.36;56.32;100038.06;5128217;28;20086;-72
2024/01/22 09:59:16;;;;;;;20.30;15.07;;;;;;;-0.71;56.45;99968.63;5127036;28;20039;-71
2024/01/22 10:01:43;;;;;;;22.85;16.67;;;;;;;-0.24;56.17;100037.19;5128116;28;20058;-71
2024/01/22 10:04:12;;;;;;;21.15;15.05;;;;;;;-0.25;56.19;99994.63;5128214;28;20115;-71
2024/01/22 10:06:42;;;;;;;20.65;15.18;;;;;;;0.11;56.06;100029.31;5127619;28;20245;-71
2024/01/22 10:09:09;;;;;;;25.95;15.63;;;;;;;0.05;55.48;100025.00;5127783;28;20100;-72
2024/01/22 10:11:37;;;;;;;20.85;15.93;;;;;;;-3.55;55.21;99387.50;5128182;28;20043;-71
2024/01/22 10:14:03;;;;;;;18.38;14.80;;;;;;;0.26;55.09;100022.31;5128165;28;20040;-72
2024/01/22 10:16:30;;;;;;;25.40;17.30;;;;;;;-0.29;55.19;99945.16;5127651;28;20084;-72
2024/01/22 10:18:58;;;;;;;21.52;16.42;;;;;;;0.23;55.09;100024.94;5128016;28;20043;-72
2024/01/22 10:21:25;;;;;;;20.17;15.35;;;;;;;0.16;54.79;100004.97;5127509;28;20048;-71
2024/01/22 10:23:58;;;;;;;21.77;15.75;;;;;;;0.32;55.07;100013.63;5127046;28;20102;-71
2024/01/22 10:26:25;;;;;;;19.58;14.95;;;;;;;0.12;54.49;99998.03;5127305;28;20315;-71
2024/01/22 10:28:52;;;;;;;18.85;13.88;;;;;;;0.19;55.08;99997.16;5128202;28;20059;-71
2024/01/22 10:31:19;;;;;;;19.42;14.05;;;;;;;0.34;54.88;99993.63;5128677;28;20078;-72
2024/01/22 10:33:48;;;;;;;20.73;14.40;;;;;;;0.33;54.30;99999.72;5127519;28;20089;-72
2024/01/22 10:36:16;;;;;;;19.98;14.77;;;;;;;0.47;54.46;99992.69;5127685;28;20036;-72
2024/01/22 10:38:44;;;;;;;20.58;15.15;;;;;;;-0.44;54.27;99840.16;5127395;28;20043;-71
2024/01/22 10:41:23;;;;;;;18.98;14.52;;;;;;;0.52;54.14;99997.91;5126982;27;20047;-71
2024/01/22 10:43:50;;;;;;;19.98;15.07;;;;;;;0.53;53.91;99997.03;5126983;28;20224;-71
2024/01/22 10:46:20;;;;;;;17.45;14.02;;;;;;;0.60;53.92;99996.13;5126826;28;20066;-72
2024/01/22 10:48:47;;;;;;;20.52;15.75;;;;;;;0.72;53.86;99988.22;5127215;28;20051;-72
2024/01/22 10:51:15;;;;;;;23.00;15.48;;;;;;;0.80;53.90;99991.66;5127246;28;20101;-71
2024/01/22 10:53:43;;;;;;;19.27;15.82;;;;;;;0.83;53.77;99981.22;5127468;28;20230;-71
2024/01/22 10:56:17;;;;;;;18.80;15.32;;;;;;;1.04;53.82;99981.94;5127073;28;20043;-71
2024/01/22 10:58:46;;;;;;;17.92;14.98;;;;;;;1.08;52.72;99983.66;5127355;28;20383;-72
2024/01/22 11:01:16;;;;;;;18.40;14.30;;;;;;;1.20;52.86;99976.59;5127386;28;20054;-72
2024/01/22 11:03:48;;;;;;;18.77;14.82;;;;;;;1.50;52.57;99991.16;5127228;28;20055;-71
2024/01/22 11:06:18;;;;;;;19.27;15.32;;;;;;;1.80;52.45;99984.84;5127167;28;20271;-71
2024/01/22 11:08:49;;;;;;;21.92;16.00;;;;;;;1.95;51.77;99998.63;5127784;28;20059;-71
2024/01/22 11:11:19;;;;;;;19.50;14.77;;;;;;;1.84;52.04;100011.81;5127380;28;20051;-71